createdAt,value
2018-12-19T00:02:24.952Z,17.23
2018-12-19T00:05:00.076Z,14.47
2018-12-19T00:07:30.915Z,14.93
2018-12-19T00:09:59.848Z,13.03
2018-12-19T00:12:28.655Z,11.00
2018-12-19T00:14:57.488Z,13.90
2018-12-19T00:17:28.739Z,12.20
2018-12-19T00:19:57.519Z,11.80
2018-12-19T00:22:26.328Z,13.93
2018-12-19T00:24:55.164Z,9.33
2018-12-19T00:27:26.100Z,11.77
2018-12-19T00:29:57.290Z,10.37
2018-12-19T00:32:29.047Z,13.57
2018-12-19T00:35:00.380Z,20.53
2018-12-19T00:37:29.592Z,14.07
2018-12-19T00:39:58.713Z,13.17
2018-12-19T00:42:27.870Z,10.80
2018-12-19T00:44:56.834Z,10.07
2018-12-19T00:47:25.880Z,11.33
2018-12-19T00:49:54.833Z,10.13
2018-12-19T00:52:23.680Z,10.27
2018-12-19T00:54:52.490Z,11.40
2018-12-19T00:57:21.355Z,7.43
2018-12-19T00:59:50.186Z,10.23
2018-12-19T01:02:19.031Z,10.57
2018-12-19T01:04:48.320Z,8.87
2018-12-19T01:07:17.473Z,9.83
2018-12-19T01:09:46.464Z,6.80
2018-12-19T01:12:16.750Z,9.10
2018-12-19T01:15:00.913Z,9.10
2018-12-19T01:17:30.582Z,8.23
2018-12-19T01:19:59.628Z,10.07
2018-12-19T01:22:28.632Z,12.60
2018-12-19T01:24:59.166Z,8.17
2018-12-19T01:27:27.992Z,8.07
2018-12-19T01:29:56.827Z,8.53
2018-12-19T01:32:25.736Z,10.00
2018-12-19T01:34:54.576Z,8.93
2018-12-19T01:37:24.644Z,9.90
2018-12-19T01:39:53.472Z,10.33
2018-12-19T01:42:22.255Z,7.77
2018-12-19T01:44:51.071Z,8.20
2018-12-19T01:47:19.856Z,9.93
2018-12-19T01:49:48.697Z,6.97
2018-12-19T01:52:17.512Z,8.40
2018-12-19T01:54:46.444Z,8.60
2018-12-19T01:57:15.276Z,7.67
2018-12-19T01:59:45.260Z,8.87
2018-12-19T02:02:14.059Z,6.33
2018-12-19T02:04:42.849Z,6.60
2018-12-19T02:07:11.633Z,7.70
2018-12-19T02:09:40.452Z,8.90
2018-12-19T02:12:09.252Z,9.93
2018-12-19T02:14:38.109Z,6.60
2018-12-19T02:17:07.421Z,5.40
2018-12-19T02:19:36.528Z,6.40
2018-12-19T02:22:05.344Z,10.80
2018-12-19T02:24:34.188Z,9.50
2018-12-19T02:27:03.047Z,6.90
2018-12-19T02:29:31.951Z,8.48
2018-12-19T02:32:02.828Z,7.13
2018-12-19T02:34:31.681Z,7.50
2018-12-19T02:37:00.548Z,7.20
2018-12-19T02:39:35.965Z,5.70
2018-12-19T02:42:00.216Z,8.83
2018-12-19T02:44:29.031Z,7.93
2018-12-19T02:46:57.898Z,9.57
2018-12-19T02:49:26.812Z,10.40
2018-12-19T02:51:55.699Z,11.13
2018-12-19T02:54:24.772Z,8.13
2018-12-19T02:56:53.627Z,8.67
2018-12-19T02:59:22.645Z,6.03
2018-12-19T03:01:51.457Z,8.03
2018-12-19T03:04:21.451Z,9.60
2018-12-19T03:06:50.331Z,10.10
2018-12-19T03:09:19.157Z,8.90
2018-12-19T03:11:48.043Z,9.37
2018-12-19T03:14:16.835Z,10.53
2018-12-19T03:16:45.630Z,8.27
2018-12-19T03:19:14.514Z,8.87
2018-12-19T03:21:43.327Z,8.97
2018-12-19T03:24:12.129Z,9.40
2018-12-19T03:26:40.925Z,12.57
2018-12-19T03:29:09.707Z,12.03
2018-12-19T03:31:38.705Z,14.80
2018-12-19T03:34:07.521Z,14.20
2018-12-19T03:36:36.351Z,11.10
2018-12-19T03:39:07.456Z,11.33
2018-12-19T03:41:37.843Z,8.47
2018-12-19T03:44:06.814Z,11.67
2018-12-19T03:46:35.633Z,11.77
2018-12-19T03:49:04.558Z,13.00
2018-12-19T03:51:33.343Z,12.77
2018-12-19T03:54:02.144Z,10.60
2018-12-19T03:56:30.960Z,9.40
2018-12-19T03:58:59.735Z,11.97
2018-12-19T04:01:28.659Z,9.80
2018-12-19T04:03:57.464Z,10.40
2018-12-19T04:06:26.261Z,12.97
2018-12-19T04:08:55.101Z,10.57
2018-12-19T04:11:23.932Z,10.18
2018-12-19T04:13:52.800Z,11.57
2018-12-19T04:16:21.575Z,12.33
2018-12-19T04:18:50.348Z,8.47
2018-12-19T04:21:19.171Z,13.47
2018-12-19T04:23:48.131Z,11.73
2018-12-19T04:26:16.916Z,11.07
2018-12-19T04:28:45.795Z,16.77
2018-12-19T04:31:14.571Z,17.23
2018-12-19T04:33:43.372Z,15.20
2018-12-19T04:36:12.200Z,14.77
2018-12-19T04:38:41.148Z,16.03
2018-12-19T04:41:09.997Z,13.77
2018-12-19T04:43:38.932Z,11.70
2018-12-19T04:46:07.732Z,10.50
2018-12-19T04:48:36.570Z,14.80
2018-12-19T04:51:05.381Z,10.27
2018-12-19T04:53:34.240Z,8.63
2018-12-19T04:56:03.036Z,8.77
2018-12-19T04:58:31.833Z,8.00
2018-12-19T05:01:15.771Z,10.73
2018-12-19T05:03:44.773Z,18.00
2018-12-19T05:06:13.667Z,10.53
2018-12-19T05:08:42.480Z,9.80
2018-12-19T05:11:11.276Z,10.13
2018-12-19T05:13:40.128Z,10.17
2018-12-19T05:16:08.907Z,8.60
2018-12-19T05:18:37.857Z,11.70
2018-12-19T05:21:06.658Z,10.53
2018-12-19T05:23:35.432Z,16.83
2018-12-19T05:26:04.251Z,10.70
2018-12-19T05:28:32.999Z,11.70
2018-12-19T05:31:01.830Z,14.07
2018-12-19T05:33:30.635Z,13.30
2018-12-19T05:35:59.425Z,14.60
2018-12-19T05:38:28.231Z,10.47
2018-12-19T05:40:57.015Z,14.00
2018-12-19T05:43:25.795Z,12.03
2018-12-19T05:45:54.631Z,14.80
2018-12-19T05:48:23.423Z,11.47
2018-12-19T05:50:52.207Z,12.83
2018-12-19T05:53:21.016Z,10.00
2018-12-19T05:55:49.830Z,11.73
2018-12-19T05:58:18.620Z,12.37
2018-12-19T06:00:47.408Z,7.40
2018-12-19T06:03:18.268Z,7.97
2018-12-19T06:05:47.148Z,12.93
2018-12-19T06:08:16.132Z,10.03
2018-12-19T06:10:45.025Z,7.57
2018-12-19T06:13:13.828Z,9.13
2018-12-19T06:15:43.863Z,10.17
2018-12-19T06:18:12.680Z,11.77
2018-12-19T06:20:41.521Z,9.37
2018-12-19T06:23:10.393Z,8.73
2018-12-19T06:25:39.180Z,9.70
2018-12-19T06:28:07.981Z,11.65
2018-12-19T06:30:37.935Z,9.60
2018-12-19T06:33:07.068Z,12.27
2018-12-19T06:35:36.199Z,11.00
2018-12-19T06:38:05.067Z,10.33
2018-12-19T06:40:33.884Z,10.47
2018-12-19T06:43:02.943Z,13.13
2018-12-19T06:45:31.931Z,13.60
2018-12-19T06:48:01.122Z,11.83
2018-12-19T06:50:29.995Z,12.10
2018-12-19T06:52:59.190Z,10.87
2018-12-19T06:55:28.041Z,13.20
2018-12-19T06:57:57.375Z,15.80
2018-12-19T07:00:27.583Z,14.57
2018-12-19T07:02:56.724Z,25.07
2018-12-19T07:05:25.632Z,16.80
2018-12-19T07:07:54.976Z,14.65
2018-12-19T07:10:23.516Z,19.63
2018-12-19T07:12:52.007Z,23.90
2018-12-19T07:15:20.502Z,20.20
2018-12-19T07:17:49.006Z,25.50
2018-12-19T07:20:17.471Z,16.87
2018-12-19T07:22:45.991Z,16.13
2018-12-19T07:25:14.498Z,14.90
2018-12-19T07:27:43.315Z,13.40
2018-12-19T07:30:11.919Z,15.77
2018-12-19T07:32:40.992Z,11.90
2018-12-19T07:35:09.904Z,10.43
2018-12-19T07:37:38.606Z,11.57
2018-12-19T07:40:11.775Z,8.27
2018-12-19T07:42:40.350Z,8.00
2018-12-19T07:45:09.864Z,10.23
2018-12-19T07:47:38.618Z,11.40
2018-12-19T07:50:07.151Z,11.53
2018-12-19T07:52:35.927Z,12.33
2018-12-19T07:55:04.812Z,15.27
2018-12-19T07:57:33.575Z,14.77
2018-12-19T08:00:02.293Z,15.03
2018-12-19T08:02:31.200Z,10.97
2018-12-19T08:04:59.691Z,8.50
2018-12-19T08:07:28.635Z,8.67
2018-12-19T08:09:57.593Z,7.27
2018-12-19T08:12:27.045Z,11.20
2018-12-19T08:15:03.623Z,12.53
2018-12-19T08:17:32.626Z,9.30
2018-12-19T08:20:01.476Z,10.77
2018-12-19T08:22:30.547Z,6.67
2018-12-19T08:25:00.305Z,5.23
2018-12-19T08:27:29.510Z,8.57
2018-12-19T08:29:58.856Z,7.10
2018-12-19T08:32:27.928Z,7.07
2018-12-19T08:34:57.087Z,6.30
2018-12-19T08:37:26.109Z,8.53
2018-12-19T08:39:55.055Z,9.90
2018-12-19T08:42:24.300Z,7.63
2018-12-19T08:44:53.581Z,8.73
2018-12-19T08:47:22.640Z,8.80
2018-12-19T08:49:51.675Z,7.83
2018-12-19T08:52:20.672Z,6.50
2018-12-19T08:54:49.502Z,8.13
2018-12-19T08:57:18.344Z,9.80
2018-12-19T08:59:47.139Z,12.77
2018-12-19T09:02:15.915Z,9.30
2018-12-19T09:04:44.781Z,9.37
2018-12-19T09:07:13.612Z,11.17
2018-12-19T09:09:42.844Z,11.67
2018-12-19T09:12:11.699Z,12.50
2018-12-19T09:14:41.744Z,11.93
2018-12-19T09:17:11.937Z,11.93
2018-12-19T09:19:41.092Z,15.23
2018-12-19T09:22:10.168Z,11.57
2018-12-19T09:24:39.056Z,28.40
2018-12-19T09:27:07.951Z,15.63
2018-12-19T09:29:36.747Z,16.00
2018-12-19T09:32:05.721Z,14.13
2018-12-19T09:34:34.569Z,17.27
2018-12-19T09:37:03.530Z,9.40
2018-12-19T09:39:32.429Z,9.90
2018-12-19T09:42:01.215Z,9.83
2018-12-19T09:44:30.200Z,12.97
2018-12-19T09:46:59.330Z,12.37
2018-12-19T09:49:28.243Z,12.90
2018-12-19T09:51:57.076Z,14.20
2018-12-19T09:54:25.879Z,16.97
2018-12-19T09:56:55.340Z,13.67
2018-12-19T09:59:26.365Z,12.10
2018-12-19T10:01:55.949Z,12.77
2018-12-19T10:04:24.774Z,15.03
2018-12-19T10:06:53.596Z,15.97
2018-12-19T10:09:22.418Z,16.23
2018-12-19T10:11:51.249Z,12.77
2018-12-19T10:14:20.097Z,11.23
2018-12-19T10:16:49.204Z,10.50
2018-12-19T10:19:18.077Z,12.37
2018-12-19T10:21:47.597Z,11.23
2018-12-19T10:24:16.440Z,13.80
2018-12-19T10:26:45.372Z,15.67
2018-12-19T10:29:14.207Z,9.57
2018-12-19T10:31:43.015Z,11.87
2018-12-19T10:34:11.810Z,14.07
2018-12-19T10:36:40.711Z,10.57
2018-12-19T10:39:13.591Z,8.87
2018-12-19T10:41:42.475Z,12.07
2018-12-19T10:44:11.661Z,11.33
2018-12-19T10:46:40.624Z,11.23
2018-12-19T10:49:09.412Z,11.77
2018-12-19T10:51:38.364Z,11.70
2018-12-19T10:54:07.687Z,23.23
2018-12-19T10:56:37.066Z,9.07
2018-12-19T10:59:06.960Z,11.47
2018-12-19T11:01:36.368Z,10.30
2018-12-19T11:04:05.734Z,10.53
2018-12-19T11:06:35.056Z,15.47
2018-12-19T11:09:06.981Z,14.00
2018-12-19T11:11:37.484Z,15.50
2018-12-19T11:14:06.824Z,14.40
2018-12-19T11:16:36.156Z,16.53
2018-12-19T11:19:05.524Z,14.07
2018-12-19T11:21:34.904Z,15.47
2018-12-19T11:24:04.843Z,15.73
2018-12-19T11:26:34.445Z,14.90
2018-12-19T11:29:03.808Z,12.67
2018-12-19T11:31:34.981Z,13.53
2018-12-19T11:34:04.428Z,16.83
2018-12-19T11:36:33.757Z,16.43
2018-12-19T11:39:07.361Z,17.67
2018-12-19T11:41:39.079Z,12.83
2018-12-19T11:44:08.935Z,14.67
2018-12-19T11:46:38.337Z,17.17
2018-12-19T11:49:07.698Z,15.23
2018-12-19T11:51:37.012Z,13.80
2018-12-19T11:54:06.433Z,14.10
2018-12-19T11:56:35.866Z,14.80
2018-12-19T11:59:05.204Z,15.33
2018-12-19T12:01:41.075Z,15.40
2018-12-19T12:04:05.936Z,12.40
2018-12-19T12:06:37.308Z,15.70
2018-12-19T12:09:07.744Z,14.00
2018-12-19T12:11:38.572Z,9.57
2018-12-19T12:14:07.948Z,11.80
2018-12-19T12:16:37.251Z,11.20
2018-12-19T12:19:06.584Z,12.23
2018-12-19T12:21:35.940Z,9.37
2018-12-19T12:24:05.349Z,9.37
2018-12-19T12:26:34.261Z,11.33
2018-12-19T12:29:03.272Z,17.63
2018-12-19T12:31:32.113Z,16.37
2018-12-19T12:34:01.065Z,13.50
2018-12-19T12:36:29.931Z,10.07
2018-12-19T12:38:58.794Z,9.50
2018-12-19T12:41:28.946Z,9.23
2018-12-19T12:43:58.052Z,11.03
2018-12-19T12:46:26.901Z,8.57
2018-12-19T12:48:55.800Z,9.47
2018-12-19T12:51:24.605Z,9.00
2018-12-19T12:53:53.432Z,10.50
2018-12-19T12:56:23.271Z,8.47
2018-12-19T12:58:52.053Z,7.43
2018-12-19T13:01:20.928Z,11.17
2018-12-19T13:03:52.156Z,8.57
2018-12-19T13:06:21.110Z,10.00
2018-12-19T13:08:51.228Z,12.00
2018-12-19T13:11:20.768Z,16.63
2018-12-19T13:13:49.633Z,16.27
2018-12-19T13:16:18.504Z,5.57
2018-12-19T13:18:47.327Z,18.30
2018-12-19T13:21:16.769Z,8.23
2018-12-19T13:23:46.032Z,13.85
2018-12-19T13:26:14.920Z,14.93
2018-12-19T13:28:45.168Z,10.37
2018-12-19T13:31:14.889Z,7.53
2018-12-19T13:33:45.405Z,6.13
2018-12-19T13:36:14.756Z,10.53
2018-12-19T13:38:44.951Z,8.10
2018-12-19T13:41:14.607Z,7.53
2018-12-19T13:43:44.028Z,8.70
2018-12-19T13:46:13.545Z,10.00
2018-12-19T13:48:42.904Z,11.33
2018-12-19T13:51:12.251Z,10.33
2018-12-19T13:53:42.448Z,7.30
2018-12-19T13:56:11.781Z,7.77
2018-12-19T13:58:41.719Z,7.43
2018-12-19T14:01:11.100Z,7.77
2018-12-19T14:03:40.477Z,6.00
2018-12-19T14:06:10.176Z,8.47
2018-12-19T14:08:39.911Z,9.57
2018-12-19T14:11:09.273Z,7.07
2018-12-19T14:13:39.052Z,7.93
2018-12-19T14:16:08.187Z,10.63
2018-12-19T14:18:37.957Z,9.33
2018-12-19T14:21:08.808Z,8.00
2018-12-19T14:23:39.475Z,7.40
2018-12-19T14:26:09.273Z,7.22
2018-12-19T14:28:39.514Z,9.90
2018-12-19T14:31:09.001Z,10.80
2018-12-19T14:33:38.351Z,13.20
2018-12-19T14:36:07.195Z,9.77
2018-12-19T14:38:36.548Z,7.17
2018-12-19T14:41:06.191Z,9.93
2018-12-19T14:43:35.043Z,9.90
2018-12-19T14:46:03.964Z,8.87
2018-12-19T14:48:33.317Z,12.90
2018-12-19T14:51:02.394Z,13.17
2018-12-19T14:53:31.224Z,11.83
2018-12-19T14:56:00.068Z,12.13
2018-12-19T14:58:28.915Z,14.17
2018-12-19T15:00:57.848Z,15.00
2018-12-19T15:03:26.882Z,11.97
2018-12-19T15:05:55.905Z,32.33
2018-12-19T15:08:24.835Z,43.70
2018-12-19T15:10:53.715Z,24.93
2018-12-19T15:13:22.628Z,21.80
2018-12-19T15:16:03.333Z,24.20
2018-12-19T15:18:33.387Z,34.37
2018-12-19T15:21:02.274Z,27.47
2018-12-19T15:23:31.111Z,30.63
2018-12-19T15:26:00.065Z,42.47
2018-12-19T15:28:28.958Z,49.83
2018-12-19T15:30:58.968Z,43.13
2018-12-19T15:33:27.876Z,51.63
2018-12-19T15:35:57.000Z,29.77
2018-12-19T15:38:25.797Z,34.83
2018-12-19T15:40:54.652Z,31.17
2018-12-19T15:43:23.472Z,33.03
2018-12-19T15:45:52.322Z,37.37
2018-12-19T15:48:21.246Z,42.77
2018-12-19T15:50:50.057Z,48.53
2018-12-19T15:53:18.881Z,61.33
2018-12-19T15:55:47.729Z,61.10
2018-12-19T15:58:16.851Z,65.73
2018-12-19T16:00:45.692Z,67.60
2018-12-19T16:03:14.612Z,70.93
2018-12-19T16:05:43.612Z,69.40
2018-12-19T16:08:27.981Z,69.00
2018-12-19T16:10:56.993Z,80.93
2018-12-19T16:13:25.817Z,61.53
2018-12-19T16:15:54.837Z,58.07
2018-12-19T16:18:23.662Z,61.53
2018-12-19T16:20:52.551Z,59.43
2018-12-19T16:23:21.445Z,60.80
2018-12-19T16:25:50.262Z,59.83
2018-12-19T16:28:19.152Z,58.80
2018-12-19T16:30:49.017Z,63.43
2018-12-19T16:33:17.917Z,65.63
2018-12-19T16:35:46.856Z,64.43
2018-12-19T16:38:15.724Z,73.13
2018-12-19T16:40:44.613Z,78.60
2018-12-19T16:43:13.524Z,80.17
2018-12-19T16:45:42.391Z,81.67
2018-12-19T16:48:11.272Z,79.07
2018-12-19T16:50:40.698Z,76.73
2018-12-19T16:53:09.554Z,65.13
2018-12-19T16:55:38.423Z,68.47
2018-12-19T16:58:07.276Z,66.37
2018-12-19T17:00:36.844Z,60.23
2018-12-19T17:03:05.655Z,55.93
2018-12-19T17:05:34.482Z,49.87
2018-12-19T17:08:03.284Z,63.00
2018-12-19T17:10:32.962Z,62.23
2018-12-19T17:13:01.976Z,60.47
2018-12-19T17:15:36.515Z,53.47
2018-12-19T17:18:05.432Z,55.23
2018-12-19T17:20:34.195Z,59.90
2018-12-19T17:23:02.904Z,65.47
2018-12-19T17:25:31.964Z,68.78
2018-12-19T17:28:00.822Z,60.47
2018-12-19T17:30:29.628Z,59.83
2018-12-19T17:32:58.623Z,55.87
2018-12-19T17:35:27.413Z,59.90
2018-12-19T17:37:56.184Z,58.90
2018-12-19T17:40:24.940Z,58.63
2018-12-19T17:42:59.233Z,54.83
2018-12-19T17:45:24.619Z,57.60
2018-12-19T17:47:53.383Z,65.47
2018-12-19T17:50:22.170Z,63.70
2018-12-19T17:52:51.063Z,63.65
2018-12-19T17:55:19.795Z,60.13
2018-12-19T17:57:48.600Z,64.03
2018-12-19T18:00:17.373Z,65.03
2018-12-19T18:02:48.352Z,63.90
2018-12-19T18:05:24.489Z,56.70
2018-12-19T18:07:53.216Z,61.53
2018-12-19T18:10:21.960Z,72.67
2018-12-19T18:12:52.127Z,70.80
2018-12-19T18:15:20.914Z,73.00
2018-12-19T18:17:50.976Z,75.10
2018-12-19T18:20:20.175Z,66.30
2018-12-19T18:22:49.151Z,68.87
2018-12-19T18:25:18.732Z,69.23
2018-12-19T18:27:49.514Z,72.90
2018-12-19T18:30:18.485Z,66.03
2018-12-19T18:32:47.885Z,63.60
2018-12-19T18:35:17.318Z,60.23
2018-12-19T18:37:46.959Z,65.50
2018-12-19T18:40:16.401Z,53.57
2018-12-19T18:42:46.902Z,67.60
2018-12-19T18:45:15.912Z,65.17
2018-12-19T18:47:45.177Z,63.20
2018-12-19T18:50:14.094Z,65.57
2018-12-19T18:52:42.920Z,69.77
2018-12-19T18:55:13.036Z,77.47
2018-12-19T18:57:41.888Z,79.30
2018-12-19T19:00:10.871Z,75.13
2018-12-19T19:02:40.295Z,72.60
2018-12-19T19:05:09.508Z,71.00
2018-12-19T19:07:38.714Z,76.97
2018-12-19T19:10:07.873Z,73.13
2018-12-19T19:12:37.136Z,63.80
2018-12-19T19:15:06.700Z,65.00
2018-12-19T19:17:35.784Z,61.83
2018-12-19T19:20:05.020Z,64.37
2018-12-19T19:22:34.163Z,61.93
2018-12-19T19:25:04.185Z,57.80
2018-12-19T19:27:33.760Z,50.50
2018-12-19T19:30:02.944Z,64.90
2018-12-19T19:32:33.244Z,42.90
2018-12-19T19:35:02.220Z,49.30
2018-12-19T19:37:33.439Z,48.20
2018-12-19T19:40:02.433Z,44.70
2018-12-19T19:42:32.508Z,54.63
2018-12-19T19:45:01.344Z,51.42
2018-12-19T19:47:30.758Z,50.60
2018-12-19T19:49:59.883Z,43.10
2018-12-19T19:52:29.016Z,41.80
2018-12-19T19:54:58.061Z,33.37
2018-12-19T19:57:27.349Z,37.97
2018-12-19T19:59:57.897Z,35.20
2018-12-19T20:02:27.452Z,34.27
2018-12-19T20:04:57.188Z,35.20
2018-12-19T20:07:27.068Z,30.20
2018-12-19T20:09:56.560Z,31.43
2018-12-19T20:12:26.495Z,36.60
2018-12-19T20:14:55.958Z,39.33
2018-12-19T20:17:26.833Z,42.73
2018-12-19T20:19:56.243Z,41.97
2018-12-19T20:22:26.236Z,33.73
2018-12-19T20:24:55.856Z,32.87
2018-12-19T20:27:25.271Z,38.13
2018-12-19T20:29:54.635Z,39.70
2018-12-19T20:32:24.400Z,39.67
2018-12-19T20:34:53.656Z,35.80
2018-12-19T20:37:22.823Z,31.17
2018-12-19T20:39:51.856Z,32.83
2018-12-19T20:42:21.163Z,33.93
2018-12-19T20:44:50.130Z,36.57
2018-12-19T20:47:20.120Z,36.60
2018-12-19T20:49:49.003Z,44.27
2018-12-19T20:52:17.828Z,40.50
2018-12-19T20:54:46.756Z,38.90
2018-12-19T20:57:15.555Z,39.50
2018-12-19T20:59:44.470Z,44.27
2018-12-19T21:02:13.635Z,46.03
2018-12-19T21:04:42.446Z,46.80
2018-12-19T21:07:11.242Z,41.13
2018-12-19T21:09:41.444Z,37.03
2018-12-19T21:12:10.405Z,31.10
2018-12-19T21:14:39.176Z,32.47
2018-12-19T21:17:13.399Z,34.43
2018-12-19T21:19:42.961Z,36.67
2018-12-19T21:22:11.743Z,32.17
2018-12-19T21:24:40.563Z,33.15
2018-12-19T21:27:09.325Z,35.40
2018-12-19T21:29:38.060Z,39.57
2018-12-19T21:32:06.829Z,36.77
2018-12-19T21:34:35.573Z,39.03
2018-12-19T21:37:04.333Z,45.60
2018-12-19T21:39:33.517Z,51.87
2018-12-19T21:42:02.260Z,51.07
2018-12-19T21:44:31.016Z,55.03
2018-12-19T21:46:59.866Z,48.67
2018-12-19T21:49:28.744Z,48.07
2018-12-19T21:51:58.202Z,49.77
2018-12-19T21:54:28.410Z,45.93
2018-12-19T21:56:58.135Z,41.80
2018-12-19T21:59:27.102Z,44.40
2018-12-19T22:01:55.974Z,42.13
2018-12-19T22:04:26.104Z,47.67
2018-12-19T22:06:56.286Z,48.60
2018-12-19T22:09:25.320Z,42.17
2018-12-19T22:11:54.546Z,36.63
2018-12-19T22:14:23.351Z,46.23
2018-12-19T22:16:57.681Z,48.50
2018-12-19T22:19:26.595Z,42.70
2018-12-19T22:21:55.428Z,48.53
2018-12-19T22:24:24.287Z,49.93
2018-12-19T22:26:53.840Z,55.07
2018-12-19T22:29:22.744Z,43.83
2018-12-19T22:31:51.788Z,50.57
2018-12-19T22:34:21.394Z,45.30
2018-12-19T22:36:50.731Z,42.93
2018-12-19T22:39:19.811Z,50.70
2018-12-19T22:41:48.660Z,48.47
2018-12-19T22:44:17.553Z,41.13
2018-12-19T22:46:46.478Z,38.13
2018-12-19T22:49:15.285Z,35.53
2018-12-19T22:51:44.198Z,40.83
2018-12-19T22:54:13.109Z,38.27
2018-12-19T22:56:43.175Z,40.33
2018-12-19T22:59:12.717Z,38.17
2018-12-19T23:01:46.830Z,42.27
2018-12-19T23:04:15.682Z,45.50
2018-12-19T23:06:44.956Z,44.03
2018-12-19T23:09:13.836Z,45.50
2018-12-19T23:11:42.791Z,37.30
2018-12-19T23:14:15.403Z,37.07
2018-12-19T23:16:49.731Z,39.87
2018-12-19T23:19:24.552Z,35.77
2018-12-19T23:21:59.421Z,35.67
2018-12-19T23:24:34.311Z,32.53
2018-12-19T23:27:05.286Z,33.00
2018-12-19T23:29:36.516Z,31.30
2018-12-19T23:32:05.528Z,30.07
2018-12-19T23:34:34.332Z,30.73
2018-12-19T23:37:03.464Z,35.10
2018-12-19T23:39:32.527Z,30.80
2018-12-19T23:42:01.894Z,28.85
2018-12-19T23:44:31.744Z,27.07
2018-12-19T23:47:01.902Z,31.03
2018-12-19T23:49:30.749Z,24.63
2018-12-19T23:51:59.603Z,31.27
2018-12-19T23:54:29.154Z,25.30
2018-12-19T23:56:58.660Z,30.47
2018-12-19T23:59:28.177Z,31.47
